Time;durP1;ratioP1;P1;durP2;ratioP2;P2;SDS_P1;SDS_P2;PMS_P1;PMS_P2;Temp;Humidity;BMP_temperature;BMP_pressure;BME280_temperature;BME280_humidity;BME280_pressure;Samples;Min_cycle;Max_cycle;Signal;HPM_P1;HPM_P2
2023/03/26 00:01:26;;;;;;;6.40;2.78;;;8.00;99.90;;;;;;5046806;28;20171;-42
2023/03/26 00:03:56;;;;;;;6.35;2.88;;;8.00;99.90;;;;;;5048110;28;20013;-42
2023/03/26 00:06:25;;;;;;;7.70;3.10;;;8.00;99.90;;;;;;5047324;28;20044;-42
2023/03/26 00:08:52;;;;;;;6.57;2.83;;;8.00;99.90;;;;;;5047996;28;20048;-43
2023/03/26 00:11:20;;;;;;;5.43;2.88;;;8.00;99.90;;;;;;5046309;28;20040;-42
2023/03/26 00:13:46;;;;;;;7.18;2.97;;;8.00;99.90;;;;;;5048021;28;20253;-42
2023/03/26 00:16:15;;;;;;;6.72;2.90;;;8.00;99.90;;;;;;5047067;28;20018;-42
2023/03/26 00:18:41;;;;;;;7.50;3.42;;;7.90;99.90;;;;;;5048020;28;20382;-43
2023/03/26 00:21:09;;;;;;;4.93;2.92;;;7.90;99.90;;;;;;5051844;28;20021;-42
2023/03/26 00:23:34;;;;;;;6.53;2.83;;;7.90;99.90;;;;;;5051506;28;20025;-43
2023/03/26 00:26:02;;;;;;;9.48;3.22;;;8.00;99.90;;;;;;5050765;28;20036;-42
2023/03/26 00:28:28;;;;;;;10.70;4.22;;;8.00;99.90;;;;;;5051777;28;20067;-43
2023/03/26 00:30:59;;;;;;;6.72;3.45;;;8.00;99.90;;;;;;5051396;28;20021;-43
2023/03/26 00:33:25;;;;;;;7.85;3.53;;;8.00;99.90;;;;;;5051686;28;20021;-43
2023/03/26 00:35:57;;;;;;;9.73;3.55;;;8.00;99.90;;;;;;5050215;28;20489;-42
2023/03/26 00:38:24;;;;;;;7.78;3.75;;;8.00;99.90;;;;;;5051204;28;20468;-44
2023/03/26 00:40:50;;;;;;;4.28;3.10;;;8.10;99.90;;;;;;5051734;28;20075;-42
2023/03/26 00:43:18;;;;;;;6.03;3.28;;;8.00;99.90;;;;;;5053802;28;20546;-42
2023/03/26 00:45:53;;;;;;;9.45;3.38;;;8.10;99.90;;;;;;5050865;28;20079;-42
2023/03/26 00:48:21;;;;;;;6.32;3.05;;;8.10;99.90;;;;;;5051399;28;20033;-42
2023/03/26 00:50:47;;;;;;;8.02;4.32;;;8.10;99.90;;;;;;5055860;28;20070;-43
2023/03/26 00:53:15;;;;;;;8.20;3.25;;;8.10;99.90;;;;;;5044517;28;20570;-43
2023/03/26 00:55:45;;;;;;;6.90;3.95;;;8.10;99.90;;;;;;5045828;28;20390;-42
2023/03/26 00:58:12;;;;;;;7.32;3.92;;;8.10;99.90;;;;;;5047916;28;20031;-43
2023/03/26 01:00:47;;;;;;;8.32;3.55;;;8.10;99.90;;;;;;5043602;28;20028;-42
2023/03/26 01:03:14;;;;;;;10.32;3.30;;;8.10;99.90;;;;;;5045564;28;20013;-42
2023/03/26 01:05:44;;;;;;;14.38;3.35;;;8.10;99.90;;;;;;5042755;28;20041;-42
2023/03/26 01:08:16;;;;;;;9.30;3.30;;;8.10;99.90;;;;;;5045087;28;20033;-42
2023/03/26 01:10:49;;;;;;;9.23;2.88;;;8.10;99.90;;;;;;5050562;28;20021;-42
2023/03/26 01:13:19;;;;;;;8.30;3.28;;;8.10;99.90;;;;;;5043046;28;20480;-42
2023/03/26 01:15:49;;;;;;;11.88;3.50;;;8.10;99.90;;;;;;5050293;28;20511;-42
2023/03/26 01:18:17;;;;;;;9.10;3.20;;;8.10;99.90;;;;;;5049616;28;20056;-42
2023/03/26 01:20:45;;;;;;;9.63;3.60;;;8.10;99.90;;;;;;5050413;28;20364;-42
2023/03/26 01:23:14;;;;;;;8.25;3.40;;;8.00;99.90;;;;;;5050597;28;20048;-42
2023/03/26 01:25:47;;;;;;;12.05;4.70;;;8.10;99.90;;;;;;5050175;28;20268;-42
2023/03/26 01:28:16;;;;;;;9.63;3.20;;;8.10;99.90;;;;;;5050181;28;20039;-42
2023/03/26 01:30:51;;;;;;;7.07;2.90;;;8.10;99.90;;;;;;5048970;28;20035;-42
2023/03/26 01:33:51;;;;;;;8.73;3.45;;;8.00;99.90;;;;;;5050359;28;20048;-42
2023/03/26 01:36:36;;;;;;;9.57;3.43;;;8.10;99.90;;;;;;5049513;28;20352;-43
2023/03/26 01:39:32;;;;;;;6.25;3.03;;;8.10;99.90;;;;;;5050642;28;20283;-42
2023/03/26 01:42:13;;;;;;;10.85;4.53;;;8.10;99.90;;;;;;5041599;28;20063;-42
2023/03/26 01:45:17;;;;;;;8.80;3.85;;;8.10;99.90;;;;;;5049999;28;20020;-42
2023/03/26 01:47:45;;;;;;;7.60;3.47;;;8.20;99.90;;;;;;5029552;28;20095;-42
2023/03/26 01:50:10;;;;;;;7.40;3.00;;;8.20;99.90;;;;;;5050318;28;20390;-41
2023/03/26 01:52:36;;;;;;;11.32;3.42;;;8.20;99.90;;;;;;5051060;28;20017;-43
2023/03/26 01:55:02;;;;;;;15.68;3.50;;;8.20;99.90;;;;;;5050219;28;20025;-41
2023/03/26 01:57:33;;;;;;;5.05;3.03;;;8.20;99.90;;;;;;5049313;28;20052;-42
2023/03/26 02:00:33;;;;;;;9.25;3.20;;;8.20;99.90;;;;;;5048817;28;20020;-42
2023/03/26 02:03:18;;;;;;;9.10;3.83;;;8.20;99.90;;;;;;5038060;28;20041;-41
2023/03/26 02:05:51;;;;;;;11.93;3.03;;;8.20;99.90;;;;;;5049868;28;20579;-42
2023/03/26 02:08:22;;;;;;;6.43;2.78;;;8.20;99.90;;;;;;5049861;28;20325;-42
2023/03/26 02:10:56;;;;;;;6.60;2.55;;;8.20;99.90;;;;;;5048458;28;20521;-41
2023/03/26 02:13:23;;;;;;;9.88;3.40;;;8.20;99.90;;;;;;5047829;28;20028;-42
2023/03/26 02:16:00;;;;;;;8.40;3.17;;;8.20;99.90;;;;;;5049138;28;20108;-41
2023/03/26 02:18:35;;;;;;;6.15;3.05;;;8.20;99.90;;;;;;5049372;28;20025;-42
2023/03/26 02:21:08;;;;;;;10.40;3.10;;;8.20;99.90;;;;;;5047011;28;20045;-40
2023/03/26 02:23:34;;;;;;;8.82;3.30;;;8.10;99.90;;;;;;5048105;28;20078;-42
2023/03/26 02:26:10;;;;;;;7.00;3.47;;;8.20;99.90;;;;;;5048508;28;20052;-41
2023/03/26 02:28:36;;;;;;;9.32;2.60;;;8.20;99.90;;;;;;5049341;28;20021;-42
2023/03/26 02:31:02;;;;;;;5.63;2.85;;;8.10;99.90;;;;;;5048818;28;20039;-42
2023/03/26 02:33:28;;;;;;;9.73;3.03;;;8.10;99.90;;;;;;5049468;28;20013;-42
2023/03/26 02:35:58;;;;;;;8.32;2.70;;;8.10;99.90;;;;;;5048638;28;20021;-43
2023/03/26 02:38:25;;;;;;;7.30;2.40;;;8.10;99.90;;;;;;5049492;28;20107;-41
2023/03/26 02:40:53;;;;;;;7.55;3.22;;;8.10;99.90;;;;;;5049722;28;20256;-42
2023/03/26 02:43:19;;;;;;;7.05;2.70;;;8.10;99.90;;;;;;5047723;28;20096;-43
2023/03/26 02:45:45;;;;;;;7.50;2.05;;;8.10;99.90;;;;;;5048506;28;20092;-41
2023/03/26 02:48:11;;;;;;;10.80;2.20;;;8.00;99.90;;;;;;5047939;28;20057;-43
2023/03/26 02:50:37;;;;;;;9.90;2.17;;;7.90;99.90;;;;;;5047364;28;20020;-42
2023/03/26 02:53:02;;;;;;;8.80;2.20;;;7.90;99.90;;;;;;5049126;28;20025;-44
2023/03/26 02:55:28;;;;;;;4.22;1.90;;;7.90;99.90;;;;;;5047690;28;20292;-43
2023/03/26 02:57:53;;;;;;;9.35;2.33;;;7.80;99.90;;;;;;5047743;28;20036;-42
2023/03/26 03:00:21;;;;;;;8.35;2.13;;;7.70;99.90;;;;;;5048627;28;20017;-41
2023/03/26 03:02:47;;;;;;;6.13;1.70;;;7.60;99.90;;;;;;5049338;28;20091;-41
2023/03/26 03:05:13;;;;;;;6.38;2.35;;;7.60;99.90;;;;;;5048869;28;20100;-41
2023/03/26 03:07:39;;;;;;;6.13;2.05;;;7.60;99.90;;;;;;5048726;28;20117;-40
2023/03/26 03:10:07;;;;;;;7.97;2.40;;;7.50;99.90;;;;;;5048609;28;20132;-41
2023/03/26 03:12:33;;;;;;;3.70;2.00;;;7.40;99.90;;;;;;5063792;28;20021;-41
2023/03/26 03:14:59;;;;;;;4.40;1.98;;;7.40;99.90;;;;;;5044498;28;20105;-41
2023/03/26 03:17:25;;;;;;;8.18;1.90;;;7.50;99.90;;;;;;5047259;28;20107;-42
2023/03/26 03:19:51;;;;;;;10.18;2.47;;;7.40;99.90;;;;;;5048633;28;20045;-41
2023/03/26 03:22:16;;;;;;;5.82;2.45;;;7.30;99.90;;;;;;5046507;28;20392;-44
2023/03/26 03:24:42;;;;;;;4.30;1.90;;;7.30;99.90;;;;;;5048474;28;20017;-42
2023/03/26 03:27:08;;;;;;;6.90;2.05;;;7.20;99.90;;;;;;5047765;28;20021;-43
2023/03/26 03:29:34;;;;;;;6.32;2.80;;;7.20;99.90;;;;;;5048663;28;20534;-42
2023/03/26 03:32:01;;;;;;;8.02;3.47;;;7.20;99.90;;;;;;5048795;28;20512;-42
2023/03/26 03:34:26;;;;;;;6.13;2.10;;;7.20;99.90;;;;;;5048523;28;20111;-42
2023/03/26 03:36:52;;;;;;;8.50;2.60;;;7.10;99.90;;;;;;5047213;28;20070;-43
2023/03/26 03:39:17;;;;;;;7.72;2.05;;;7.00;99.90;;;;;;5048521;28;20242;-43
2023/03/26 03:41:43;;;;;;;13.18;2.30;;;7.00;99.90;;;;;;5046773;28;20017;-43
2023/03/26 03:44:09;;;;;;;9.07;2.08;;;7.00;99.90;;;;;;5046984;28;20474;-42
2023/03/26 03:46:34;;;;;;;8.00;2.42;;;7.00;99.90;;;;;;5047690;28;20104;-43
2023/03/26 03:49:01;;;;;;;6.45;2.25;;;6.90;99.90;;;;;;5048456;28;20079;-42
2023/03/26 03:51:26;;;;;;;6.75;1.98;;;6.90;99.90;;;;;;5047958;28;20040;-42
2023/03/26 03:53:54;;;;;;;6.78;2.00;;;6.90;99.90;;;;;;5047555;28;20021;-43
2023/03/26 03:56:22;;;;;;;6.43;2.05;;;6.90;99.90;;;;;;5051957;28;20025;-43
2023/03/26 03:58:49;;;;;;;7.93;1.80;;;6.80;99.90;;;;;;5052502;28;20385;-42
2023/03/26 04:01:16;;;;;;;7.60;2.05;;;6.80;99.90;;;;;;5051198;28;20355;-41
2023/03/26 04:03:44;;;;;;;12.18;2.22;;;6.70;99.90;;;;;;5051923;28;20013;-42
2023/03/26 04:06:11;;;;;;;8.63;2.10;;;6.70;99.90;;;;;;5051224;28;20027;-42
2023/03/26 04:08:37;;;;;;;9.02;1.67;;;6.70;99.90;;;;;;5050704;28;20028;-42
2023/03/26 04:11:02;;;;;;;13.40;2.20;;;6.70;99.90;;;;;;5052231;28;20042;-43
2023/03/26 04:13:28;;;;;;;4.53;1.90;;;6.70;99.90;;;;;;5052407;28;20433;-43
2023/03/26 04:15:54;;;;;;;11.63;2.78;;;6.60;99.90;;;;;;5050755;28;20031;-43
2023/03/26 04:18:21;;;;;;;6.82;1.70;;;6.60;99.90;;;;;;5051720;28;20029;-42
2023/03/26 04:20:46;;;;;;;9.70;2.00;;;6.60;99.90;;;;;;5051676;28;20044;-42
2023/03/26 04:23:13;;;;;;;9.57;2.10;;;6.60;99.90;;;;;;5051592;28;20045;-43
2023/03/26 04:25:42;;;;;;;8.55;1.73;;;6.60;99.90;;;;;;5051385;28;20096;-42
2023/03/26 04:28:10;;;;;;;6.28;2.13;;;6.50;99.90;;;;;;5047724;28;20029;-42
2023/03/26 04:30:37;;;;;;;5.40;2.38;;;6.50;99.90;;;;;;5047756;28;20296;-42
2023/03/26 04:33:03;;;;;;;9.95;1.75;;;6.50;99.90;;;;;;5043065;28;20037;-42
2023/03/26 04:35:34;;;;;;;8.48;1.73;;;6.50;99.90;;;;;;5045040;28;20024;-42
2023/03/26 04:38:05;;;;;;;6.63;1.80;;;6.50;99.90;;;;;;5041067;28;20028;-41
2023/03/26 04:40:33;;;;;;;6.93;1.90;;;6.50;99.90;;;;;;5044761;28;20497;-41
2023/03/26 04:43:01;;;;;;;4.43;1.60;;;6.60;99.90;;;;;;5051525;28;20029;-41
2023/03/26 04:45:29;;;;;;;5.93;1.70;;;6.60;99.90;;;;;;5050886;28;20017;-42
2023/03/26 04:47:58;;;;;;;5.90;1.73;;;6.60;99.90;;;;;;5050431;28;20079;-43
2023/03/26 04:50:25;;;;;;;9.27;2.10;;;6.70;99.90;;;;;;5050424;28;20213;-42
2023/03/26 04:52:53;;;;;;;4.80;2.08;;;6.70;99.90;;;;;;5048370;28;20320;-41
2023/03/26 04:55:27;;;;;;;12.27;2.35;;;6.70;99.90;;;;;;5042046;28;20108;-40
2023/03/26 04:57:56;;;;;;;6.93;2.13;;;6.70;99.90;;;;;;5044879;28;20030;-41
2023/03/26 05:00:22;;;;;;;9.20;2.22;;;6.80;99.90;;;;;;5042470;28;20025;-41
2023/03/26 05:02:52;;;;;;;6.88;1.95;;;6.80;99.90;;;;;;5040431;28;20029;-41
2023/03/26 05:05:17;;;;;;;10.63;2.50;;;6.80;99.90;;;;;;5042922;28;20017;-42
2023/03/26 05:07:43;;;;;;;8.13;2.60;;;6.90;99.90;;;;;;5040232;28;20026;-41
2023/03/26 05:10:12;;;;;;;7.68;2.00;;;6.90;99.90;;;;;;5043291;28;20498;-41
2023/03/26 05:12:38;;;;;;;11.75;2.05;;;6.90;99.90;;;;;;5056546;28;20035;-41
2023/03/26 05:15:04;;;;;;;8.02;1.92;;;7.00;99.90;;;;;;5046486;28;20028;-42
2023/03/26 05:17:30;;;;;;;5.43;1.60;;;7.00;99.90;;;;;;5041196;28;20021;-41
2023/03/26 05:19:56;;;;;;;9.18;1.80;;;7.00;99.90;;;;;;5041220;28;20553;-41
2023/03/26 05:22:22;;;;;;;6.13;1.80;;;7.00;99.90;;;;;;5042972;28;20147;-41
2023/03/26 05:24:47;;;;;;;7.57;2.58;;;7.00;99.90;;;;;;5040671;28;20108;-41
2023/03/26 05:27:15;;;;;;;7.72;1.90;;;7.10;99.90;;;;;;5044568;28;20035;-41
2023/03/26 05:29:41;;;;;;;5.65;1.83;;;7.10;99.90;;;;;;5041535;28;20087;-41
2023/03/26 05:32:08;;;;;;;8.85;2.00;;;7.20;99.90;;;;;;5039903;28;20268;-41
2023/03/26 05:34:34;;;;;;;4.35;1.90;;;7.20;99.90;;;;;;5041155;28;20024;-42
2023/03/26 05:36:59;;;;;;;8.98;1.95;;;7.20;99.90;;;;;;5045890;28;20029;-42
2023/03/26 05:39:26;;;;;;;7.90;1.52;;;7.20;99.90;;;;;;5046362;28;20025;-42
2023/03/26 05:41:52;;;;;;;3.13;1.50;;;7.20;99.90;;;;;;5044507;28;20127;-42
2023/03/26 05:44:17;;;;;;;11.43;2.42;;;7.30;99.90;;;;;;5042192;28;20409;-41
2023/03/26 05:46:43;;;;;;;7.88;1.95;;;7.30;99.90;;;;;;5008681;28;1039981;-41
2023/03/26 05:49:09;;;;;;;8.15;2.22;;;7.30;99.90;;;;;;5043007;28;20360;-42
2023/03/26 05:51:35;;;;;;;9.57;2.63;;;7.40;99.90;;;;;;5047235;28;20035;-41
2023/03/26 05:54:01;;;;;;;3.97;1.83;;;7.40;99.90;;;;;;5047807;28;20035;-43
2023/03/26 05:56:26;;;;;;;7.97;1.90;;;7.40;99.90;;;;;;5042957;28;20024;-42
2023/03/26 05:58:52;;;;;;;11.02;2.15;;;7.50;99.90;;;;;;5067014;28;20063;-42
2023/03/26 06:01:18;;;;;;;6.70;2.10;;;7.50;99.90;;;;;;5045382;28;20075;-41
2023/03/26 06:03:44;;;;;;;7.03;1.88;;;7.50;99.90;;;;;;5040545;28;20017;-42
2023/03/26 06:06:15;;;;;;;6.10;2.00;;;7.50;99.90;;;;;;5048776;28;20096;-41
2023/03/26 06:08:47;;;;;;;8.25;2.08;;;7.50;99.90;;;;;;5049680;28;20078;-41
2023/03/26 06:11:14;;;;;;;12.07;2.47;;;7.60;99.90;;;;;;5049623;28;20536;-42
2023/03/26 06:13:40;;;;;;;9.48;2.03;;;7.60;99.90;;;;;;5048365;28;20314;-43
2023/03/26 06:16:07;;;;;;;4.30;1.92;;;7.60;99.90;;;;;;5054328;28;20506;-42
2023/03/26 06:18:33;;;;;;;7.50;2.10;;;7.70;99.90;;;;;;5043126;28;20013;-41
2023/03/26 06:20:58;;;;;;;9.80;2.20;;;7.70;99.90;;;;;;5039765;28;20052;-41
2023/03/26 06:23:24;;;;;;;5.10;2.05;;;7.80;99.90;;;;;;5049093;28;20426;-41
2023/03/26 06:25:49;;;;;;;6.47;1.90;;;7.90;99.90;;;;;;5049092;28;20051;-42
2023/03/26 06:28:15;;;;;;;8.50;2.05;;;7.90;99.90;;;;;;5048137;28;20052;-41
2023/03/26 06:30:41;;;;;;;8.25;2.42;;;8.00;99.90;;;;;;5049068;28;20028;-42
2023/03/26 06:33:07;;;;;;;8.23;1.63;;;8.10;99.90;;;;;;5047688;28;20029;-42
2023/03/26 06:35:32;;;;;;;8.32;1.83;;;8.10;99.90;;;;;;5048789;28;20067;-42
2023/03/26 06:37:58;;;;;;;4.82;1.58;;;8.20;99.90;;;;;;5048676;28;20025;-41
2023/03/26 06:40:24;;;;;;;7.00;1.92;;;8.30;99.90;;;;;;5048908;28;20017;-42
2023/03/26 06:42:50;;;;;;;6.85;1.83;;;8.30;99.90;;;;;;5048467;28;20020;-42
2023/03/26 06:45:15;;;;;;;8.82;1.67;;;8.30;99.90;;;;;;5041640;28;20021;-42
2023/03/26 06:47:41;;;;;;;4.85;1.83;;;8.40;99.90;;;;;;5040783;28;20068;-42
2023/03/26 06:50:07;;;;;;;6.28;1.67;;;8.40;99.90;;;;;;5040284;28;20055;-43
2023/03/26 06:52:33;;;;;;;3.70;1.63;;;8.50;99.90;;;;;;5042119;28;20202;-43
2023/03/26 06:54:58;;;;;;;9.55;2.35;;;8.50;99.90;;;;;;5039011;28;20052;-48
2023/03/26 06:57:24;;;;;;;6.80;1.98;;;8.50;99.90;;;;;;5040797;28;20079;-44
2023/03/26 06:59:49;;;;;;;3.78;2.10;;;8.50;99.90;;;;;;5044352;28;20451;-42
2023/03/26 07:02:15;;;;;;;6.68;1.75;;;8.60;99.90;;;;;;5046968;28;20033;-43
2023/03/26 07:04:40;;;;;;;6.45;2.03;;;8.60;99.90;;;;;;5047239;28;20057;-43
2023/03/26 07:07:06;;;;;;;6.10;1.98;;;8.60;99.90;;;;;;5048175;28;20044;-42
2023/03/26 07:09:32;;;;;;;9.90;2.13;;;8.60;99.90;;;;;;5048573;28;20106;-43
2023/03/26 07:11:58;;;;;;;4.22;1.70;;;8.60;99.90;;;;;;5048720;28;20033;-42
2023/03/26 07:14:23;;;;;;;8.50;1.98;;;8.70;99.90;;;;;;5048161;28;20110;-42
2023/03/26 07:16:50;;;;;;;9.63;2.42;;;8.70;99.90;;;;;;5047441;28;20141;-42
2023/03/26 07:19:16;;;;;;;8.18;2.08;;;8.70;99.90;;;;;;5047959;28;20036;-43
2023/03/26 07:21:42;;;;;;;6.97;2.13;;;8.70;99.90;;;;;;5047884;28;20074;-42
2023/03/26 07:24:12;;;;;;;6.22;1.92;;;8.70;99.90;;;;;;5048085;28;20368;-43
2023/03/26 07:27:03;;;;;;;6.60;2.15;;;8.80;99.90;;;;;;5047605;28;20029;-42
2023/03/26 07:29:37;;;;;;;10.63;2.50;;;8.80;99.90;;;;;;5047975;28;20397;-43
2023/03/26 07:32:39;;;;;;;8.10;2.30;;;8.80;99.90;;;;;;5046809;28;20025;-43
2023/03/26 07:35:16;;;;;;;6.75;2.30;;;8.80;99.90;;;;;;5047766;28;20029;-42
2023/03/26 07:38:12;;;;;;;7.13;2.35;;;8.90;99.90;;;;;;5048044;28;20021;-42
2023/03/26 07:41:16;;;;;;;9.57;2.38;;;9.00;99.90;;;;;;5048050;28;20024;-41
2023/03/26 07:44:06;;;;;;;8.23;2.08;;;9.00;99.90;;;;;;5047276;28;20159;-42
2023/03/26 07:46:36;;;;;;;5.95;1.75;;;9.10;99.90;;;;;;5047068;28;20074;-42
2023/03/26 07:49:03;;;;;;;9.48;2.78;;;9.20;99.90;;;;;;5047934;28;20422;-41
2023/03/26 07:51:30;;;;;;;4.28;1.85;;;9.20;99.90;;;;;;5047539;28;20056;-41
2023/03/26 07:53:58;;;;;;;10.52;2.90;;;9.30;99.90;;;;;;5046419;28;20028;-42
2023/03/26 07:56:32;;;;;;;5.35;2.08;;;9.40;99.90;;;;;;5052319;28;20056;-42
2023/03/26 07:59:05;;;;;;;5.30;2.35;;;9.60;99.90;;;;;;5039264;28;20105;-41
2023/03/26 08:02:00;;;;;;;6.00;2.03;;;9.70;99.90;;;;;;5041857;28;20013;-41
2023/03/26 08:04:28;;;;;;;4.45;1.58;;;9.80;99.90;;;;;;5042261;28;20025;-42
2023/03/26 08:07:31;;;;;;;8.32;2.45;;;9.90;99.90;;;;;;5045593;28;20021;-43
2023/03/26 08:10:17;;;;;;;6.53;1.80;;;10.00;99.90;;;;;;5040881;28;20033;-41
2023/03/26 08:13:25;;;;;;;6.97;2.08;;;10.00;99.90;;;;;;5042007;28;20075;-43
2023/03/26 08:16:08;;;;;;;7.78;2.00;;;10.20;99.90;;;;;;5031619;28;20112;-41
2023/03/26 08:19:24;;;;;;;7.53;2.08;;;10.30;99.90;;;;;;5046547;28;20049;-43
2023/03/26 08:21:54;;;;;;;11.38;1.88;;;10.30;99.90;;;;;;5037106;28;20112;-42
2023/03/26 08:24:28;;;;;;;5.50;1.70;;;10.30;99.90;;;;;;5046575;28;20025;-41
2023/03/26 08:27:18;;;;;;;5.20;1.75;;;10.40;99.90;;;;;;5045804;28;20406;-41
2023/03/26 08:30:02;;;;;;;7.00;2.08;;;10.60;99.90;;;;;;5039818;28;20025;-42
2023/03/26 08:32:28;;;;;;;4.50;1.88;;;10.60;99.90;;;;;;5045748;28;20032;-43
2023/03/26 08:34:53;;;;;;;5.00;2.00;;;10.70;99.90;;;;;;5045202;28;20029;-42
2023/03/26 08:37:19;;;;;;;6.22;2.08;;;10.60;99.90;;;;;;5045406;28;20033;-41
2023/03/26 08:39:45;;;;;;;4.20;1.75;;;10.70;99.90;;;;;;5047078;28;20116;-41
2023/03/26 08:42:19;;;;;;;10.80;1.85;;;10.80;99.90;;;;;;5049593;28;20104;-42
2023/03/26 08:45:36;;;;;;;4.43;1.52;;;10.90;99.90;;;;;;5048219;28;20439;-41
2023/03/26 08:48:23;;;;;;;4.93;1.58;;;11.10;99.90;;;;;;5037987;28;20111;-42
2023/03/26 08:51:16;;;;;;;3.60;1.27;;;11.10;99.90;;;;;;5049917;28;20043;-41
2023/03/26 08:53:51;;;;;;;3.92;1.55;;;11.10;99.90;;;;;;5050074;28;20017;-41
2023/03/26 08:56:39;;;;;;;4.15;1.52;;;11.10;99.90;;;;;;5044725;28;20108;-42
2023/03/26 08:59:49;;;;;;;2.97;1.30;;;11.20;99.90;;;;;;5041731;28;20598;-41
2023/03/26 09:02:38;;;;;;;5.77;1.77;;;11.60;99.90;;;;;;5049627;28;20112;-42
2023/03/26 09:05:22;;;;;;;5.10;1.52;;;12.70;99.90;;;;;;5050230;28;20021;-41
2023/03/26 09:08:24;;;;;;;4.93;1.63;;;13.70;99.90;;;;;;5051396;28;20105;-41
2023/03/26 09:11:13;;;;;;;3.38;1.38;;;15.00;99.90;;;;;;5050805;28;20301;-40
2023/03/26 09:14:06;;;;;;;5.35;1.70;;;14.90;96.90;;;;;;5046861;28;20356;-42
2023/03/26 09:17:11;;;;;;;4.53;1.60;;;14.50;95.80;;;;;;5021495;28;20045;-41
2023/03/26 09:20:04;;;;;;;3.92;1.25;;;13.90;97.10;;;;;;5065250;28;20017;-42
2023/03/26 09:23:13;;;;;;;5.03;1.52;;;13.40;99.20;;;;;;5050229;28;20025;-43
2023/03/26 09:26:01;;;;;;;4.70;1.83;;;13.00;99.80;;;;;;5050277;28;20027;-44
2023/03/26 09:29:00;;;;;;;2.17;1.23;;;12.60;99.90;;;;;;5048467;28;20486;-41
2023/03/26 09:31:35;;;;;;;7.75;1.58;;;12.50;99.90;;;;;;5050332;28;20110;-41
2023/03/26 09:34:29;;;;;;;9.20;1.63;;;12.80;99.90;;;;;;5050313;28;20683;-42
2023/03/26 09:37:21;;;;;;;5.75;1.88;;;13.20;99.90;;;;;;5049635;28;20067;-44
2023/03/26 09:40:17;;;;;;;6.65;1.70;;;14.00;99.90;;;;;;5050193;28;20017;-42
2023/03/26 09:42:59;;;;;;;5.28;1.60;;;13.90;99.50;;;;;;5050350;28;20043;-41
2023/03/26 09:45:28;;;;;;;5.68;2.67;;;13.60;99.90;;;;;;5048265;28;20025;-41
2023/03/26 09:47:59;;;;;;;5.68;2.00;;;13.20;99.90;;;;;;5049943;28;20154;-41
2023/03/26 09:51:00;;;;;;;7.88;2.25;;;12.50;99.90;;;;;;5050168;28;20601;-41
2023/03/26 09:53:26;;;;;;;;;;;12.10;99.90;;;;;;5029769;28;20045;-42
2023/03/26 09:56:10;;;;;;;10.77;2.08;;;11.90;99.90;;;;;;5048611;28;19912;-42
2023/03/26 09:58:44;;;;;;;5.75;1.95;;;11.70;99.90;;;;;;5049443;28;20108;-42
2023/03/26 10:01:30;;;;;;;7.38;2.20;;;11.70;99.90;;;;;;5049598;28;20025;-43
2023/03/26 10:04:25;;;;;;;6.40;2.78;;;12.10;99.90;;;;;;5049760;28;20048;-43
2023/03/26 10:07:19;;;;;;;10.40;2.20;;;12.10;99.90;;;;;;5049264;28;20013;-43
2023/03/26 10:10:00;;;;;;;10.90;2.67;;;12.30;99.90;;;;;;5049813;28;20033;-42
2023/03/26 10:12:40;;;;;;;5.43;2.20;;;12.50;99.90;;;;;;5049409;28;20386;-41
2023/03/26 10:15:33;;;;;;;5.45;2.45;;;13.10;99.90;;;;;;5049106;28;20021;-42
2023/03/26 10:18:13;;;;;;;8.15;2.65;;;13.10;99.90;;;;;;5049470;28;20433;-41
2023/03/26 10:21:03;;;;;;;7.85;2.20;;;13.70;99.90;;;;;;5049672;28;20530;-43
2023/03/26 10:23:47;;;;;;;5.43;1.98;;;14.70;99.90;;;;;;5049820;28;20173;-46
2023/03/26 10:26:28;;;;;;;8.48;2.28;;;15.60;99.90;;;;;;5047256;28;20021;-41
2023/03/26 10:29:38;;;;;;;5.93;2.42;;;16.20;99.10;;;;;;5042527;28;20529;-42
2023/03/26 10:32:21;;;;;;;9.00;2.35;;;17.00;97.60;;;;;;5014595;28;20033;-41
2023/03/26 10:35:17;;;;;;;4.22;1.80;;;17.50;95.60;;;;;;5049046;28;20017;-43
2023/03/26 10:37:43;;;;;;;6.75;2.00;;;18.00;93.70;;;;;;5048786;28;20074;-43
2023/03/26 10:40:15;;;;;;;8.52;2.28;;;18.70;92.40;;;;;;5048866;28;20453;-42
2023/03/26 10:43:18;;;;;;;6.43;2.20;;;19.40;90.70;;;;;;5049162;28;20537;-42
2023/03/26 10:46:11;;;;;;;5.07;1.88;;;19.70;89.80;;;;;;5048460;28;20017;-42
2023/03/26 10:49:07;;;;;;;5.80;1.55;;;20.60;84.80;;;;;;5048391;28;20068;-42
2023/03/26 10:51:47;;;;;;;6.05;1.80;;;20.60;78.90;;;;;;5046501;28;20639;-42
2023/03/26 10:54:48;;;;;;;8.13;1.90;;;20.70;80.80;;;;;;5047036;28;20060;-42
2023/03/26 10:57:17;;;;;;;9.85;2.15;;;19.80;78.10;;;;;;5045460;28;20396;-43
2023/03/26 10:59:42;;;;;;;5.78;1.63;;;18.70;82.30;;;;;;5048338;28;20017;-43
2023/03/26 11:02:29;;;;;;;6.28;1.90;;;17.60;84.90;;;;;;5048671;28;20035;-42
2023/03/26 11:04:58;;;;;;;3.13;1.55;;;16.60;88.40;;;;;;5048343;28;20120;-42
2023/03/26 11:07:42;;;;;;;4.50;2.10;;;15.90;90.60;;;;;;5048233;28;20418;-43
2023/03/26 11:10:23;;;;;;;5.63;1.40;;;15.30;91.00;;;;;;5048516;28;20440;-42
2023/03/26 11:13:24;;;;;;;3.35;1.40;;;14.70;92.10;;;;;;5047738;28;20032;-42
2023/03/26 11:16:05;;;;;;;6.22;1.92;;;14.40;92.60;;;;;;5048491;28;20470;-41
2023/03/26 11:19:06;;;;;;;4.50;2.05;;;14.70;94.60;;;;;;5046310;28;20031;-43
2023/03/26 11:21:54;;;;;;;6.32;2.03;;;15.00;92.10;;;;;;5048344;28;20437;-42
2023/03/26 11:24:53;;;;;;;6.03;2.40;;;15.20;91.60;;;;;;5047018;28;20113;-43
2023/03/26 11:27:35;;;;;;;4.82;2.05;;;15.40;91.70;;;;;;5045670;28;20025;-43
2023/03/26 11:30:22;;;;;;;8.50;1.85;;;15.60;91.70;;;;;;5046871;28;20013;-44
2023/03/26 11:32:53;;;;;;;6.32;1.92;;;15.40;91.00;;;;;;5061831;28;20025;-42
2023/03/26 11:35:31;;;;;;;7.78;1.95;;;15.20;91.20;;;;;;5048153;28;20021;-43
2023/03/26 11:38:02;;;;;;;6.50;2.00;;;15.00;91.50;;;;;;5046838;28;20029;-42
2023/03/26 11:40:38;;;;;;;7.45;2.20;;;14.80;92.50;;;;;;5052999;28;20075;-44
2023/03/26 11:43:08;;;;;;;11.70;2.22;;;14.60;93.20;;;;;;5047381;28;20029;-42
2023/03/26 11:45:36;;;;;;;6.55;2.13;;;14.40;93.50;;;;;;5047302;28;20075;-41
2023/03/26 11:48:15;;;;;;;8.20;2.15;;;14.30;94.80;;;;;;5047504;28;20526;-41
2023/03/26 11:50:46;;;;;;;5.97;2.08;;;13.80;93.50;;;;;;5047743;28;20025;-42
2023/03/26 11:53:13;;;;;;;;;;;13.70;94.90;;;;;;5047195;28;20024;-41
2023/03/26 11:55:45;;;;;;;6.68;2.33;;;13.50;96.80;;;;;;5046302;28;19905;-42
2023/03/26 11:58:24;;;;;;;9.68;2.80;;;13.30;96.40;;;;;;5047404;28;20025;-41
2023/03/26 12:00:53;;;;;;;5.97;2.88;;;13.10;96.50;;;;;;5046511;28;20475;-41
2023/03/26 12:03:19;;;;;;;9.43;2.30;;;12.80;96.90;;;;;;5048231;28;20036;-40
2023/03/26 12:05:56;;;;;;;4.57;1.70;;;12.80;98.40;;;;;;5047284;28;20025;-41
2023/03/26 12:08:31;;;;;;;7.70;2.03;;;12.90;98.30;;;;;;5047794;28;20497;-43
2023/03/26 12:11:08;;;;;;;15.20;3.25;;;13.00;98.90;;;;;;5041172;28;20051;-41
2023/03/26 12:13:51;;;;;;;5.80;2.40;;;13.50;99.00;;;;;;5042425;28;20021;-43
2023/03/26 12:16:21;;;;;;;5.65;2.10;;;14.60;97.50;;;;;;5065436;28;20021;-42
2023/03/26 12:18:59;;;;;;;6.53;2.20;;;15.50;95.80;;;;;;5052899;28;20035;-41
2023/03/26 12:21:24;;;;;;;6.00;1.83;;;16.00;92.50;;;;;;5052700;28;20052;-41
2023/03/26 12:23:58;;;;;;;6.18;2.08;;;16.30;93.10;;;;;;5049845;28;20060;-41
2023/03/26 12:26:33;;;;;;;6.75;2.35;;;16.10;91.00;;;;;;5043163;28;20017;-41
2023/03/26 12:29:06;;;;;;;7.43;1.90;;;15.40;92.00;;;;;;5062216;28;20040;-40
2023/03/26 12:31:46;;;;;;;6.72;1.70;;;14.90;90.90;;;;;;5040909;28;20423;-42
2023/03/26 12:34:14;;;;;;;;;;;14.60;93.80;;;;;;5046113;28;20021;-41
2023/03/26 12:36:48;;;;;;;7.18;2.42;;;14.40;94.00;;;;;;5046753;28;19908;-43
2023/03/26 12:39:33;;;;;;;5.75;1.88;;;14.20;95.10;;;;;;5050266;28;20483;-42
2023/03/26 12:42:00;;;;;;;5.90;1.92;;;14.10;95.00;;;;;;5071726;28;20025;-42
2023/03/26 12:44:42;;;;;;;7.85;2.00;;;13.90;95.70;;;;;;5041415;28;20483;-42
2023/03/26 12:47:16;;;;;;;5.55;2.22;;;13.80;96.20;;;;;;5044338;28;20033;-42
2023/03/26 12:49:43;;;;;;;7.03;2.13;;;13.50;95.30;;;;;;5040858;28;20033;-42
2023/03/26 12:52:18;;;;;;;11.80;3.17;;;13.20;96.50;;;;;;5051277;28;20026;-42
2023/03/26 12:55:13;;;;;;;5.68;2.13;;;12.70;96.80;;;;;;5043301;28;20114;-42
2023/03/26 12:58:04;;;;;;;8.20;3.05;;;12.70;97.80;;;;;;5040714;28;20566;-44
2023/03/26 13:00:50;;;;;;;11.75;2.78;;;12.60;97.40;;;;;;5037226;28;20401;-45
2023/03/26 13:03:27;;;;;;;8.10;2.40;;;12.50;99.00;;;;;;5040561;28;20108;-44
2023/03/26 13:06:28;;;;;;;7.82;2.13;;;12.50;99.70;;;;;;5042592;28;20021;-43
2023/03/26 13:09:21;;;;;;;9.15;2.55;;;12.50;99.90;;;;;;5002126;28;20033;-45
2023/03/26 13:12:08;;;;;;;11.18;2.38;;;12.60;99.60;;;;;;5037753;28;20025;-43
2023/03/26 13:14:44;;;;;;;8.45;2.67;;;12.50;99.10;;;;;;5039978;28;21100;-42
2023/03/26 13:17:27;;;;;;;7.53;2.78;;;12.50;99.40;;;;;;5042297;28;20083;-46
2023/03/26 13:20:12;;;;;;;6.43;2.42;;;12.40;99.60;;;;;;5074121;28;20232;-44
2023/03/26 13:22:49;;;;;;;5.75;2.35;;;12.50;99.90;;;;;;5035086;28;20021;-43
2023/03/26 13:25:38;;;;;;;6.55;2.20;;;12.60;99.90;;;;;;5032830;28;20084;-44
2023/03/26 13:28:28;;;;;;;4.47;1.95;;;12.60;99.90;;;;;;5014425;28;20033;-44
2023/03/26 13:31:20;;;;;;;10.70;3.10;;;12.70;99.20;;;;;;5038201;28;20017;-43